sensor_id;sensor_type;location;lat;lon;timestamp;temperature;humidity
64918;HTU21D;52176;44.858;38.372;2023-04-24T00:01:47;7.49;81.30
64918;HTU21D;52176;44.858;38.372;2023-04-24T00:04:13;7.46;81.43
64918;HTU21D;52176;44.858;38.372;2023-04-24T00:06:42;7.42;81.57
64918;HTU21D;52176;44.858;38.372;2023-04-24T00:09:08;7.39;81.67
64918;HTU21D;52176;44.858;38.372;2023-04-24T00:11:35;7.35;81.72
64918;HTU21D;52176;44.858;38.372;2023-04-24T00:14:01;7.43;86.06
64918;HTU21D;52176;44.858;38.372;2023-04-24T00:16:27;7.49;84.82
64918;HTU21D;52176;44.858;38.372;2023-04-24T00:18:53;7.50;84.14
64918;HTU21D;52176;44.858;38.372;2023-04-24T00:21:19;7.47;83.68
64918;HTU21D;52176;44.858;38.372;2023-04-24T00:23:45;7.45;83.46
64918;HTU21D;52176;44.858;38.372;2023-04-24T00:26:11;7.40;83.27
64918;HTU21D;52176;44.858;38.372;2023-04-24T00:28:37;7.37;83.20
64918;HTU21D;52176;44.858;38.372;2023-04-24T00:31:03;7.33;83.16
64918;HTU21D;52176;44.858;38.372;2023-04-24T00:33:29;7.30;83.12
64918;HTU21D;52176;44.858;38.372;2023-04-24T00:35:55;7.27;83.13
64918;HTU21D;52176;44.858;38.372;2023-04-24T00:38:21;7.25;83.13
64918;HTU21D;52176;44.858;38.372;2023-04-24T00:40:47;7.23;83.14
64918;HTU21D;52176;44.858;38.372;2023-04-24T00:43:15;7.19;83.16
64918;HTU21D;52176;44.858;38.372;2023-04-24T00:45:41;7.16;83.14
64918;HTU21D;52176;44.858;38.372;2023-04-24T00:48:07;7.11;83.11
64918;HTU21D;52176;44.858;38.372;2023-04-24T00:50:35;7.09;83.16
64918;HTU21D;52176;44.858;38.372;2023-04-24T00:53:01;7.07;83.17
64918;HTU21D;52176;44.858;38.372;2023-04-24T00:55:27;7.04;83.20
64918;HTU21D;52176;44.858;38.372;2023-04-24T00:57:53;7.01;83.23
64918;HTU21D;52176;44.858;38.372;2023-04-24T01:00:19;7.01;83.24
64918;HTU21D;52176;44.858;38.372;2023-04-24T01:06:21;6.94;83.04
64918;HTU21D;52176;44.858;38.372;2023-04-24T01:08:47;6.91;83.07
64918;HTU21D;52176;44.858;38.372;2023-04-24T01:11:14;6.88;83.13
64918;HTU21D;52176;44.858;38.372;2023-04-24T01:13:40;6.86;83.13
64918;HTU21D;52176;44.858;38.372;2023-04-24T01:16:06;6.84;83.16
64918;HTU21D;52176;44.858;38.372;2023-04-24T01:18:33;6.83;83.20
64918;HTU21D;52176;44.858;38.372;2023-04-24T01:20:59;6.81;83.22
64918;HTU21D;52176;44.858;38.372;2023-04-24T01:23:30;6.80;83.20
64918;HTU21D;52176;44.858;38.372;2023-04-24T01:25:55;6.78;83.20
64918;HTU21D;52176;44.858;38.372;2023-04-24T01:28:21;6.79;83.20
64918;HTU21D;52176;44.858;38.372;2023-04-24T01:30:48;6.79;83.20
64918;HTU21D;52176;44.858;38.372;2023-04-24T01:33:14;6.76;83.17
64918;HTU21D;52176;44.858;38.372;2023-04-24T01:35:40;6.76;83.23
64918;HTU21D;52176;44.858;38.372;2023-04-24T01:38:08;6.76;83.27
64918;HTU21D;52176;44.858;38.372;2023-04-24T01:40:35;6.76;83.29
64918;HTU21D;52176;44.858;38.372;2023-04-24T01:43:01;6.89;87.74
64918;HTU21D;52176;44.858;38.372;2023-04-24T01:45:29;7.01;86.51
64918;HTU21D;52176;44.858;38.372;2023-04-24T01:47:55;7.05;85.82
64918;HTU21D;52176;44.858;38.372;2023-04-24T01:50:23;7.09;85.38
64918;HTU21D;52176;44.858;38.372;2023-04-24T01:52:48;7.12;85.09
64918;HTU21D;52176;44.858;38.372;2023-04-24T01:55:14;7.12;84.89
64918;HTU21D;52176;44.858;38.372;2023-04-24T01:57:40;7.13;84.72
64918;HTU21D;52176;44.858;38.372;2023-04-24T02:00:06;7.14;84.64
64918;HTU21D;52176;44.858;38.372;2023-04-24T02:02:39;7.28;88.78
64918;HTU21D;52176;44.858;38.372;2023-04-24T02:05:05;7.38;87.48
64918;HTU21D;52176;44.858;38.372;2023-04-24T02:07:35;7.40;86.53
64918;HTU21D;52176;44.858;38.372;2023-04-24T02:10:01;7.42;86.12
64918;HTU21D;52176;44.858;38.372;2023-04-24T02:12:27;7.41;85.66
64918;HTU21D;52176;44.858;38.372;2023-04-24T02:14:52;7.39;85.19
64918;HTU21D;52176;44.858;38.372;2023-04-24T02:17:18;7.44;88.78
64918;HTU21D;52176;44.858;38.372;2023-04-24T02:19:44;7.54;87.76
64918;HTU21D;52176;44.858;38.372;2023-04-24T02:22:11;7.57;87.13
64918;HTU21D;52176;44.858;38.372;2023-04-24T02:24:37;7.60;86.72
64918;HTU21D;52176;44.858;38.372;2023-04-24T02:27:03;7.62;86.37
64918;HTU21D;52176;44.858;38.372;2023-04-24T02:29:29;7.62;85.93
64918;HTU21D;52176;44.858;38.372;2023-04-24T02:31:55;7.61;85.80
64918;HTU21D;52176;44.858;38.372;2023-04-24T02:34:20;7.68;89.19
64918;HTU21D;52176;44.858;38.372;2023-04-24T02:36:46;7.76;88.14
64918;HTU21D;52176;44.858;38.372;2023-04-24T02:39:14;7.79;87.53
64918;HTU21D;52176;44.858;38.372;2023-04-24T02:41:42;7.86;87.12
64918;HTU21D;52176;44.858;38.372;2023-04-24T02:44:08;7.88;86.81
64918;HTU21D;52176;44.858;38.372;2023-04-24T02:46:34;7.88;86.61
64918;HTU21D;52176;44.858;38.372;2023-04-24T02:49:00;7.98;89.60
64918;HTU21D;52176;44.858;38.372;2023-04-24T02:51:26;8.05;88.51
64918;HTU21D;52176;44.858;38.372;2023-04-24T02:53:52;8.08;87.70
64918;HTU21D;52176;44.858;38.372;2023-04-24T02:56:18;8.11;87.34
64918;HTU21D;52176;44.858;38.372;2023-04-24T02:58:44;8.09;87.08
64918;HTU21D;52176;44.858;38.372;2023-04-24T03:01:10;8.12;86.86
64918;HTU21D;52176;44.858;38.372;2023-04-24T03:03:37;8.09;86.48
64918;HTU21D;52176;44.858;38.372;2023-04-24T03:06:03;8.18;89.72
64918;HTU21D;52176;44.858;38.372;2023-04-24T03:08:34;8.37;91.12
64918;HTU21D;52176;44.858;38.372;2023-04-24T03:11:00;8.59;91.40
64918;HTU21D;52176;44.858;38.372;2023-04-24T03:13:26;8.75;91.32
64918;HTU21D;52176;44.858;38.372;2023-04-24T03:15:52;8.93;91.11
64918;HTU21D;52176;44.858;38.372;2023-04-24T03:18:19;9.09;90.82
64918;HTU21D;52176;44.858;38.372;2023-04-24T03:20:47;9.23;89.54
64918;HTU21D;52176;44.858;38.372;2023-04-24T03:23:13;9.23;90.19
64918;HTU21D;52176;44.858;38.372;2023-04-24T03:25:39;9.33;90.17
64918;HTU21D;52176;44.858;38.372;2023-04-24T03:28:06;9.46;90.08
64918;HTU21D;52176;44.858;38.372;2023-04-24T03:30:38;9.59;88.90
64918;HTU21D;52176;44.858;38.372;2023-04-24T03:36:40;9.65;89.90
64918;HTU21D;52176;44.858;38.372;2023-04-24T03:39:07;9.81;89.66
64918;HTU21D;52176;44.858;38.372;2023-04-24T03:41:35;9.95;88.51
64918;HTU21D;52176;44.858;38.372;2023-04-24T03:44:16;9.98;87.86
64918;HTU21D;52176;44.858;38.372;2023-04-24T03:46:42;9.93;88.86
64918;HTU21D;52176;44.858;38.372;2023-04-24T03:49:08;10.06;88.96
64918;HTU21D;52176;44.858;38.372;2023-04-24T03:51:38;10.21;87.87
64918;HTU21D;52176;44.858;38.372;2023-04-24T03:54:30;10.22;88.13
64918;HTU21D;52176;44.858;38.372;2023-04-24T03:56:56;10.34;87.82
64918;HTU21D;52176;44.858;38.372;2023-04-24T03:59:24;10.45;87.43
64918;HTU21D;52176;44.858;38.372;2023-04-24T04:02:04;10.62;86.41
64918;HTU21D;52176;44.858;38.372;2023-04-24T04:04:31;10.62;85.96
64918;HTU21D;52176;44.858;38.372;2023-04-24T04:06:57;10.55;86.69
64918;HTU21D;52176;44.858;38.372;2023-04-24T04:09:26;10.70;85.93
64918;HTU21D;52176;44.858;38.372;2023-04-24T04:11:52;10.71;85.42
64918;HTU21D;52176;44.858;38.372;2023-04-24T04:14:19;10.66;86.45
64918;HTU21D;52176;44.858;38.372;2023-04-24T04:16:47;10.77;86.34
64918;HTU21D;52176;44.858;38.372;2023-04-24T04:19:13;10.96;85.54
64918;HTU21D;52176;44.858;38.372;2023-04-24T04:21:39;11.01;85.00
64918;HTU21D;52176;44.858;38.372;2023-04-24T04:24:25;10.98;84.66
64918;HTU21D;52176;44.858;38.372;2023-04-24T04:26:52;10.93;84.32
64918;HTU21D;52176;44.858;38.372;2023-04-24T04:29:28;10.89;84.39
64918;HTU21D;52176;44.858;38.372;2023-04-24T04:31:55;10.85;84.13
64918;HTU21D;52176;44.858;38.372;2023-04-24T04:34:21;10.82;86.09
64918;HTU21D;52176;44.858;38.372;2023-04-24T04:36:49;10.97;86.29
64918;HTU21D;52176;44.858;38.372;2023-04-24T04:39:45;11.17;85.50
64918;HTU21D;52176;44.858;38.372;2023-04-24T04:42:22;11.37;84.58
64918;HTU21D;52176;44.858;38.372;2023-04-24T04:44:49;11.41;85.14
64918;HTU21D;52176;44.858;38.372;2023-04-24T04:47:20;11.56;84.21
64918;HTU21D;52176;44.858;38.372;2023-04-24T04:49:47;11.58;83.74
64918;HTU21D;52176;44.858;38.372;2023-04-24T04:52:20;11.57;83.51
64918;HTU21D;52176;44.858;38.372;2023-04-24T04:54:53;11.46;84.66
64918;HTU21D;52176;44.858;38.372;2023-04-24T04:57:20;11.59;84.79
64918;HTU21D;52176;44.858;38.372;2023-04-24T04:59:46;11.73;83.85
64918;HTU21D;52176;44.858;38.372;2023-04-24T05:02:20;11.72;83.84
64918;HTU21D;52176;44.858;38.372;2023-04-24T05:04:46;11.88;83.10
64918;HTU21D;52176;44.858;38.372;2023-04-24T05:07:12;11.94;82.77
64918;HTU21D;52176;44.858;38.372;2023-04-24T05:09:43;11.97;82.50
64918;HTU21D;52176;44.858;38.372;2023-04-24T05:12:10;11.97;82.35
64918;HTU21D;52176;44.858;38.372;2023-04-24T05:14:43;11.89;83.52
64918;HTU21D;52176;44.858;38.372;2023-04-24T05:17:10;12.01;82.68
64918;HTU21D;52176;44.858;38.372;2023-04-24T05:19:36;12.03;82.30
64918;HTU21D;52176;44.858;38.372;2023-04-24T05:22:04;12.03;82.14
64918;HTU21D;52176;44.858;38.372;2023-04-24T05:24:36;11.99;82.02
64918;HTU21D;52176;44.858;38.372;2023-04-24T05:27:20;11.85;83.32
64918;HTU21D;52176;44.858;38.372;2023-04-24T05:29:47;11.96;82.58
64918;HTU21D;52176;44.858;38.372;2023-04-24T05:32:13;11.97;82.18
64918;HTU21D;52176;44.858;38.372;2023-04-24T05:34:39;11.91;81.99
64918;HTU21D;52176;44.858;38.372;2023-04-24T05:37:05;11.86;81.98
64918;HTU21D;52176;44.858;38.372;2023-04-24T05:39:33;11.83;81.97
64918;HTU21D;52176;44.858;38.372;2023-04-24T05:42:00;11.78;81.91
64918;HTU21D;52176;44.858;38.372;2023-04-24T05:44:27;11.76;81.98
64918;HTU21D;52176;44.858;38.372;2023-04-24T05:46:53;11.72;83.61
64918;HTU21D;52176;44.858;38.372;2023-04-24T05:49:21;11.87;82.87
64918;HTU21D;52176;44.858;38.372;2023-04-24T05:51:47;11.96;82.38
64918;HTU21D;52176;44.858;38.372;2023-04-24T05:54:13;11.94;83.43
64918;HTU21D;52176;44.858;38.372;2023-04-24T05:56:39;12.13;82.55
64918;HTU21D;52176;44.858;38.372;2023-04-24T06:01:52;12.29;82.55
64918;HTU21D;52176;44.858;38.372;2023-04-24T06:04:20;12.50;82.40
64918;HTU21D;52176;44.858;38.372;2023-04-24T06:06:45;12.74;81.43
64918;HTU21D;52176;44.858;38.372;2023-04-24T06:09:11;12.87;80.97
64918;HTU21D;52176;44.858;38.372;2023-04-24T06:11:38;12.96;80.67
64918;HTU21D;52176;44.858;38.372;2023-04-24T06:14:06;13.06;80.46
64918;HTU21D;52176;44.858;38.372;2023-04-24T06:16:54;13.16;80.15
64918;HTU21D;52176;44.858;38.372;2023-04-24T06:19:31;13.15;80.61
64918;HTU21D;52176;44.858;38.372;2023-04-24T06:21:57;13.40;79.91
64918;HTU21D;52176;44.858;38.372;2023-04-24T06:24:26;13.44;79.38
64918;HTU21D;52176;44.858;38.372;2023-04-24T06:26:52;13.47;79.26
64918;HTU21D;52176;44.858;38.372;2023-04-24T06:29:18;13.37;79.16
64918;HTU21D;52176;44.858;38.372;2023-04-24T06:31:44;13.19;79.87
64918;HTU21D;52176;44.858;38.372;2023-04-24T06:34:09;13.32;79.51
64918;HTU21D;52176;44.858;38.372;2023-04-24T06:36:35;13.34;80.13
64918;HTU21D;52176;44.858;38.372;2023-04-24T06:39:01;13.65;79.35
64918;HTU21D;52176;44.858;38.372;2023-04-24T06:41:27;13.84;79.26
64918;HTU21D;52176;44.858;38.372;2023-04-24T06:43:53;14.25;78.33
64918;HTU21D;52176;44.858;38.372;2023-04-24T06:46:19;14.55;77.69
64918;HTU21D;52176;44.858;38.372;2023-04-24T06:48:49;14.82;77.17
64918;HTU21D;52176;44.858;38.372;2023-04-24T06:51:16;15.07;76.70
64918;HTU21D;52176;44.858;38.372;2023-04-24T06:53:43;15.30;76.20
64918;HTU21D;52176;44.858;38.372;2023-04-24T06:56:09;15.53;75.73
64918;HTU21D;52176;44.858;38.372;2023-04-24T06:58:35;15.72;75.41
64918;HTU21D;52176;44.858;38.372;2023-04-24T07:01:00;15.85;75.11
64918;HTU21D;52176;44.858;38.372;2023-04-24T07:03:26;15.93;74.82
64918;HTU21D;52176;44.858;38.372;2023-04-24T07:05:52;15.97;74.59
64918;HTU21D;52176;44.858;38.372;2023-04-24T07:08:18;15.95;74.54
64918;HTU21D;52176;44.858;38.372;2023-04-24T07:10:46;15.87;74.37
64918;HTU21D;52176;44.858;38.372;2023-04-24T07:13:11;15.80;74.27
64918;HTU21D;52176;44.858;38.372;2023-04-24T07:15:37;15.71;74.22
64918;HTU21D;52176;44.858;38.372;2023-04-24T07:18:03;15.63;74.28
64918;HTU21D;52176;44.858;38.372;2023-04-24T07:20:29;15.60;74.29
64918;HTU21D;52176;44.858;38.372;2023-04-24T07:22:55;15.40;73.51
64918;HTU21D;52176;44.858;38.372;2023-04-24T07:25:21;15.49;72.99
64918;HTU21D;52176;44.858;38.372;2023-04-24T07:27:46;15.72;72.77
64918;HTU21D;52176;44.858;38.372;2023-04-24T07:30:14;15.75;72.54
64918;HTU21D;52176;44.858;38.372;2023-04-24T07:32:40;15.69;72.64
64918;HTU21D;52176;44.858;38.372;2023-04-24T07:35:05;15.61;72.76
64918;HTU21D;52176;44.858;38.372;2023-04-24T07:37:31;15.53;72.89
64918;HTU21D;52176;44.858;38.372;2023-04-24T07:39:57;15.47;73.02
64918;HTU21D;52176;44.858;38.372;2023-04-24T07:42:23;15.41;73.16
64918;HTU21D;52176;44.858;38.372;2023-04-24T07:44:49;15.33;73.32
64918;HTU21D;52176;44.858;38.372;2023-04-24T07:47:14;15.16;73.54
64918;HTU21D;52176;44.858;38.372;2023-04-24T07:49:41;15.31;73.32
64918;HTU21D;52176;44.858;38.372;2023-04-24T07:52:08;15.38;73.22
64918;HTU21D;52176;44.858;38.372;2023-04-24T07:54:33;15.36;73.23
64918;HTU21D;52176;44.858;38.372;2023-04-24T07:56:59;15.32;73.22
64918;HTU21D;52176;44.858;38.372;2023-04-24T07:59:26;15.24;73.15
64918;HTU21D;52176;44.858;38.372;2023-04-24T08:01:52;15.14;73.25
64918;HTU21D;52176;44.858;38.372;2023-04-24T08:04:18;15.03;73.49
64918;HTU21D;52176;44.858;38.372;2023-04-24T08:06:43;14.99;73.73
64918;HTU21D;52176;44.858;38.372;2023-04-24T08:09:09;14.99;73.89
64918;HTU21D;52176;44.858;38.372;2023-04-24T08:11:35;14.94;73.84
64918;HTU21D;52176;44.858;38.372;2023-04-24T08:14:01;14.85;73.90
64918;HTU21D;52176;44.858;38.372;2023-04-24T08:16:27;14.72;74.11
64918;HTU21D;52176;44.858;38.372;2023-04-24T08:18:52;14.64;74.38
64918;HTU21D;52176;44.858;38.372;2023-04-24T08:21:18;14.59;74.62
64918;HTU21D;52176;44.858;38.372;2023-04-24T08:23:45;14.52;76.60
64918;HTU21D;52176;44.858;38.372;2023-04-24T08:26:11;14.70;75.80
64918;HTU21D;52176;44.858;38.372;2023-04-24T08:28:37;14.79;75.45
64918;HTU21D;52176;44.858;38.372;2023-04-24T08:31:03;14.83;75.21
64918;HTU21D;52176;44.858;38.372;2023-04-24T08:33:29;14.85;75.14
64918;HTU21D;52176;44.858;38.372;2023-04-24T08:36:01;14.86;75.09
64918;HTU21D;52176;44.858;38.372;2023-04-24T08:38:27;14.85;75.01
64918;HTU21D;52176;44.858;38.372;2023-04-24T08:40:53;14.82;75.04
64918;HTU21D;52176;44.858;38.372;2023-04-24T08:43:20;14.78;75.09
64918;HTU21D;52176;44.858;38.372;2023-04-24T08:45:47;14.75;75.25
64918;HTU21D;52176;44.858;38.372;2023-04-24T08:48:13;14.75;75.28
64918;HTU21D;52176;44.858;38.372;2023-04-24T08:50:39;14.74;75.34
64918;HTU21D;52176;44.858;38.372;2023-04-24T08:53:08;14.73;75.37
64918;HTU21D;52176;44.858;38.372;2023-04-24T08:55:34;14.73;75.38
64918;HTU21D;52176;44.858;38.372;2023-04-24T08:58:01;14.73;75.46
64918;HTU21D;52176;44.858;38.372;2023-04-24T09:00:27;14.75;75.46
64918;HTU21D;52176;44.858;38.372;2023-04-24T09:02:53;14.69;77.12
64918;HTU21D;52176;44.858;38.372;2023-04-24T09:05:20;14.93;76.16
64918;HTU21D;52176;44.858;38.372;2023-04-24T09:07:53;15.00;75.62
64918;HTU21D;52176;44.858;38.372;2023-04-24T09:10:23;14.94;75.41
64918;HTU21D;52176;44.858;38.372;2023-04-24T09:12:50;14.88;75.44
64918;HTU21D;52176;44.858;38.372;2023-04-24T09:15:16;14.83;75.45
64918;HTU21D;52176;44.858;38.372;2023-04-24T09:17:42;14.79;75.52
64918;HTU21D;52176;44.858;38.372;2023-04-24T09:20:08;14.78;75.51
64918;HTU21D;52176;44.858;38.372;2023-04-24T09:22:34;14.68;77.26
64918;HTU21D;52176;44.858;38.372;2023-04-24T09:25:04;14.94;76.34
64918;HTU21D;52176;44.858;38.372;2023-04-24T09:27:32;15.02;75.83
64918;HTU21D;52176;44.858;38.372;2023-04-24T09:29:58;15.09;75.70
64918;HTU21D;52176;44.858;38.372;2023-04-24T09:32:24;15.15;75.48
64918;HTU21D;52176;44.858;38.372;2023-04-24T09:35:07;15.13;75.41
64918;HTU21D;52176;44.858;38.372;2023-04-24T09:37:37;15.12;75.55
64918;HTU21D;52176;44.858;38.372;2023-04-24T09:40:13;15.13;75.70
64918;HTU21D;52176;44.858;38.372;2023-04-24T09:42:39;15.12;75.77
64918;HTU21D;52176;44.858;38.372;2023-04-24T09:45:09;15.12;75.89
64918;HTU21D;52176;44.858;38.372;2023-04-24T09:47:36;15.15;75.89
64918;HTU21D;52176;44.858;38.372;2023-04-24T09:50:09;15.08;77.99
64918;HTU21D;52176;44.858;38.372;2023-04-24T09:52:35;15.30;76.88
64918;HTU21D;52176;44.858;38.372;2023-04-24T09:55:01;15.36;76.21
64918;HTU21D;52176;44.858;38.372;2023-04-24T09:57:26;15.28;75.96
64918;HTU21D;52176;44.858;38.372;2023-04-24T09:59:53;15.25;75.85
64918;HTU21D;52176;44.858;38.372;2023-04-24T10:02:19;15.11;75.93
64918;HTU21D;52176;44.858;38.372;2023-04-24T10:04:54;14.99;76.20
64918;HTU21D;52176;44.858;38.372;2023-04-24T10:07:21;14.88;76.42
64918;HTU21D;52176;44.858;38.372;2023-04-24T10:09:47;14.74;78.72
64918;HTU21D;52176;44.858;38.372;2023-04-24T10:12:13;14.81;78.85
64918;HTU21D;52176;44.858;38.372;2023-04-24T10:14:40;14.92;78.72
64918;HTU21D;52176;44.858;38.372;2023-04-24T10:17:06;15.01;78.04
64918;HTU21D;52176;44.858;38.372;2023-04-24T10:19:32;15.07;78.53
64918;HTU21D;52176;44.858;38.372;2023-04-24T10:21:59;15.13;78.16
64918;HTU21D;52176;44.858;38.372;2023-04-24T10:28:01;15.32;76.54
64918;HTU21D;52176;44.858;38.372;2023-04-24T10:30:28;15.25;76.50
64918;HTU21D;52176;44.858;38.372;2023-04-24T10:32:54;15.13;79.12
64918;HTU21D;52176;44.858;38.372;2023-04-24T10:35:20;15.29;78.11
64918;HTU21D;52176;44.858;38.372;2023-04-24T10:37:58;15.37;77.67
64918;HTU21D;52176;44.858;38.372;2023-04-24T10:40:30;15.39;77.36
64918;HTU21D;52176;44.858;38.372;2023-04-24T10:42:56;15.24;78.98
64918;HTU21D;52176;44.858;38.372;2023-04-24T10:45:23;15.38;78.08
64918;HTU21D;52176;44.858;38.372;2023-04-24T10:48:01;15.33;79.37
64918;HTU21D;52176;44.858;38.372;2023-04-24T10:50:41;15.47;79.21
64918;HTU21D;52176;44.858;38.372;2023-04-24T10:53:09;15.65;79.08
64918;HTU21D;52176;44.858;38.372;2023-04-24T10:55:42;15.87;79.12
64918;HTU21D;52176;44.858;38.372;2023-04-24T10:58:09;16.11;78.17
64918;HTU21D;52176;44.858;38.372;2023-04-24T11:00:38;16.29;77.71
64918;HTU21D;52176;44.858;38.372;2023-04-24T11:03:05;16.47;77.27
64918;HTU21D;52176;44.858;38.372;2023-04-24T11:05:50;16.61;76.30
64918;HTU21D;52176;44.858;38.372;2023-04-24T11:11:11;16.62;75.57
64918;HTU21D;52176;44.858;38.372;2023-04-24T11:16:27;16.19;75.57
64918;HTU21D;52176;44.858;38.372;2023-04-24T11:21:31;15.68;78.36
64918;HTU21D;52176;44.858;38.372;2023-04-24T11:23:57;15.76;77.29
64918;HTU21D;52176;44.858;38.372;2023-04-24T11:26:23;15.70;76.95
64918;HTU21D;52176;44.858;38.372;2023-04-24T11:28:55;15.65;76.86
64918;HTU21D;52176;44.858;38.372;2023-04-24T11:31:38;15.45;78.63
64918;HTU21D;52176;44.858;38.372;2023-04-24T11:36:34;15.60;78.75
64918;HTU21D;52176;44.858;38.372;2023-04-24T11:39:00;15.65;78.18
64918;HTU21D;52176;44.858;38.372;2023-04-24T11:41:26;15.71;78.62
64918;HTU21D;52176;44.858;38.372;2023-04-24T11:43:52;15.77;77.78
64918;HTU21D;52176;44.858;38.372;2023-04-24T11:46:20;15.85;77.12
64918;HTU21D;52176;44.858;38.372;2023-04-24T11:48:46;15.76;76.97
64918;HTU21D;52176;44.858;38.372;2023-04-24T11:51:12;15.56;78.25
64918;HTU21D;52176;44.858;38.372;2023-04-24T11:53:38;15.57;78.64
64918;HTU21D;52176;44.858;38.372;2023-04-24T11:56:04;15.72;77.60
64918;HTU21D;52176;44.858;38.372;2023-04-24T11:58:37;15.67;77.12
64918;HTU21D;52176;44.858;38.372;2023-04-24T12:01:03;15.51;76.97
64918;HTU21D;52176;44.858;38.372;2023-04-24T12:03:29;15.21;79.49
64918;HTU21D;52176;44.858;38.372;2023-04-24T12:06:04;15.21;80.44
64918;HTU21D;52176;44.858;38.372;2023-04-24T12:08:31;15.40;78.96
64918;HTU21D;52176;44.858;38.372;2023-04-24T12:10:57;15.39;78.28
64918;HTU21D;52176;44.858;38.372;2023-04-24T12:13:27;15.29;78.12
64918;HTU21D;52176;44.858;38.372;2023-04-24T12:15:53;15.24;78.03
64918;HTU21D;52176;44.858;38.372;2023-04-24T12:18:22;15.16;77.81
64918;HTU21D;52176;44.858;38.372;2023-04-24T12:20:47;15.07;77.75
64918;HTU21D;52176;44.858;38.372;2023-04-24T12:23:13;14.95;77.76
64918;HTU21D;52176;44.858;38.372;2023-04-24T12:25:39;14.84;77.72
64918;HTU21D;52176;44.858;38.372;2023-04-24T12:30:33;14.52;81.82
64918;HTU21D;52176;44.858;38.372;2023-04-24T12:33:00;14.59;82.32
64918;HTU21D;52176;44.858;38.372;2023-04-24T12:35:29;14.78;80.82
64918;HTU21D;52176;44.858;38.372;2023-04-24T12:38:10;14.72;80.06
64918;HTU21D;52176;44.858;38.372;2023-04-24T12:40:36;14.57;82.22
64918;HTU21D;52176;44.858;38.372;2023-04-24T12:43:02;14.71;83.39
64918;HTU21D;52176;44.858;38.372;2023-04-24T12:45:28;14.93;81.89
64918;HTU21D;52176;44.858;38.372;2023-04-24T12:47:54;15.01;82.71
64918;HTU21D;52176;44.858;38.372;2023-04-24T12:50:19;15.28;81.33
64918;HTU21D;52176;44.858;38.372;2023-04-24T12:52:46;15.45;80.55
64918;HTU21D;52176;44.858;38.372;2023-04-24T12:55:11;15.49;79.99
64918;HTU21D;52176;44.858;38.372;2023-04-24T12:57:38;15.47;79.64
64918;HTU21D;52176;44.858;38.372;2023-04-24T13:00:04;15.39;79.43
64918;HTU21D;52176;44.858;38.372;2023-04-24T13:02:31;15.28;79.31
64918;HTU21D;52176;44.858;38.372;2023-04-24T13:04:57;15.13;79.27
64918;HTU21D;52176;44.858;38.372;2023-04-24T13:07:23;15.02;79.46
64918;HTU21D;52176;44.858;38.372;2023-04-24T13:09:49;14.89;82.33
64918;HTU21D;52176;44.858;38.372;2023-04-24T13:12:16;15.01;83.08
64918;HTU21D;52176;44.858;38.372;2023-04-24T13:14:42;15.16;82.42
64918;HTU21D;52176;44.858;38.372;2023-04-24T13:17:08;15.39;81.17
64918;HTU21D;52176;44.858;38.372;2023-04-24T13:19:37;15.39;80.49
64918;HTU21D;52176;44.858;38.372;2023-04-24T13:22:03;15.37;80.22
64918;HTU21D;52176;44.858;38.372;2023-04-24T13:24:30;15.19;81.48
64918;HTU21D;52176;44.858;38.372;2023-04-24T13:26:56;15.32;80.60
64918;HTU21D;52176;44.858;38.372;2023-04-24T13:29:22;15.31;80.14
64918;HTU21D;52176;44.858;38.372;2023-04-24T13:31:51;15.29;79.90
64918;HTU21D;52176;44.858;38.372;2023-04-24T13:34:19;15.22;79.71
64918;HTU21D;52176;44.858;38.372;2023-04-24T13:36:45;15.04;81.81
64918;HTU21D;52176;44.858;38.372;2023-04-24T13:39:24;15.16;80.83
64918;HTU21D;52176;44.858;38.372;2023-04-24T13:41:51;15.06;81.49
64918;HTU21D;52176;44.858;38.372;2023-04-24T13:44:17;15.09;81.32
64918;HTU21D;52176;44.858;38.372;2023-04-24T13:46:44;15.22;80.29
64918;HTU21D;52176;44.858;38.372;2023-04-24T13:49:11;15.10;80.04
64918;HTU21D;52176;44.858;38.372;2023-04-24T13:51:37;14.88;82.34
64918;HTU21D;52176;44.858;38.372;2023-04-24T13:54:03;14.94;82.52
64918;HTU21D;52176;44.858;38.372;2023-04-24T13:56:28;15.09;81.45
64918;HTU21D;52176;44.858;38.372;2023-04-24T13:58:54;15.09;80.97
64918;HTU21D;52176;44.858;38.372;2023-04-24T14:01:20;15.06;80.76
64918;HTU21D;52176;44.858;38.372;2023-04-24T14:03:50;14.89;83.19
64918;HTU21D;52176;44.858;38.372;2023-04-24T14:06:17;14.95;83.54
64918;HTU21D;52176;44.858;38.372;2023-04-24T14:08:43;15.01;83.71
64918;HTU21D;52176;44.858;38.372;2023-04-24T14:11:08;15.07;83.32
64918;HTU21D;52176;44.858;38.372;2023-04-24T14:13:35;15.11;82.19
64918;HTU21D;52176;44.858;38.372;2023-04-24T14:16:01;15.07;81.78
64918;HTU21D;52176;44.858;38.372;2023-04-24T14:18:27;15.00;81.65
64918;HTU21D;52176;44.858;38.372;2023-04-24T14:20:53;14.83;83.68
64918;HTU21D;52176;44.858;38.372;2023-04-24T14:23:19;14.89;83.90
64918;HTU21D;52176;44.858;38.372;2023-04-24T14:25:45;14.96;83.86
64918;HTU21D;52176;44.858;38.372;2023-04-24T14:28:13;15.04;82.77
64918;HTU21D;52176;44.858;38.372;2023-04-24T14:30:39;15.01;82.29
64918;HTU21D;52176;44.858;38.372;2023-04-24T14:33:06;14.94;82.07
64918;HTU21D;52176;44.858;38.372;2023-04-24T14:35:31;14.77;84.35
64918;HTU21D;52176;44.858;38.372;2023-04-24T14:37:59;14.82;84.74
64918;HTU21D;52176;44.858;38.372;2023-04-24T14:40:25;14.93;83.51
64918;HTU21D;52176;44.858;38.372;2023-04-24T14:42:51;14.85;84.68
64918;HTU21D;52176;44.858;38.372;2023-04-24T14:45:17;14.96;83.58
64918;HTU21D;52176;44.858;38.372;2023-04-24T14:47:43;14.93;83.06
64918;HTU21D;52176;44.858;38.372;2023-04-24T14:50:09;14.78;84.55
64918;HTU21D;52176;44.858;38.372;2023-04-24T14:52:36;14.78;84.58
64918;HTU21D;52176;44.858;38.372;2023-04-24T14:55:03;14.85;83.54
64918;HTU21D;52176;44.858;38.372;2023-04-24T14:57:28;14.81;82.99
64918;HTU21D;52176;44.858;38.372;2023-04-24T14:59:54;14.63;82.74
64918;HTU21D;52176;44.858;38.372;2023-04-24T15:02:20;14.52;82.68
64918;HTU21D;52176;44.858;38.372;2023-04-24T15:04:46;14.30;82.65
64918;HTU21D;52176;44.858;38.372;2023-04-24T15:07:12;14.19;82.74
64918;HTU21D;52176;44.858;38.372;2023-04-24T15:09:37;14.04;82.82
64918;HTU21D;52176;44.858;38.372;2023-04-24T15:12:03;13.90;83.07
64918;HTU21D;52176;44.858;38.372;2023-04-24T15:14:29;13.77;86.44
64918;HTU21D;52176;44.858;38.372;2023-04-24T15:16:55;13.82;85.36
64918;HTU21D;52176;44.858;38.372;2023-04-24T15:19:21;13.80;84.86
64918;HTU21D;52176;44.858;38.372;2023-04-24T15:21:47;13.75;84.64
64918;HTU21D;52176;44.858;38.372;2023-04-24T15:24:13;13.68;84.33
64918;HTU21D;52176;44.858;38.372;2023-04-24T15:26:38;13.55;84.16
64918;HTU21D;52176;44.858;38.372;2023-04-24T15:29:04;13.46;84.29
64918;HTU21D;52176;44.858;38.372;2023-04-24T15:31:30;13.40;84.44
64918;HTU21D;52176;44.858;38.372;2023-04-24T15:33:56;13.35;84.52